Ide Min — PC8366 — position and weather

sailwx.info

Track history (hours):
 
Tides and Currents Weather Stations Pressure Air Temp Water Temp Dewpoint Dewpoint Depression Visibility Wind Speed Wind Dir Waves Ship Positions

Ide Min (Netherlands)

Ship's website: http://www.idemin.nl/english/english.html

Last reported at 2014-Aug-27 12:17 UTC. Time now 2014-Aug-27 15:13 UTC.
Position N 55°00' E 010°14'.

Length 40 m; draft 2.4 m.

MMSI: 244537000.

Date/timePositionNaut miles runAvg speedWind from/ knotsBaromVisibWave heightAir tempDewpointWater temp
2014-Aug-27 12:17N 55°00' E 010°14'1 1.9
2014-Aug-27 11:33N 54°59' E 010°15'3 0.5
2014-Aug-27 06:33N 54°57' E 010°16'0 0.0
2014-Aug-27 05:33N 54°57' E 010°16'0 0.0
2014-Aug-27 04:33N 54°57' E 010°16'0 0.0
2014-Aug-27 00:32N 54°57' E 010°16'0 0.0
2014-Aug-26 23:31N 54°57' E 010°16'3 0.3
2014-Aug-26 15:30N 54°56' E 010°20'  
2014-Aug-24 09:33N 54°37' E 010°04'4 3.6
2014-Aug-24 08:33N 54°40' E 010°02'  
2014-Aug-21 11:28N 54°55' E 010°13'5 5.2
2014-Aug-21 10:30N 55°00' E 010°11'3 2.7
2014-Aug-21 09:33N 54°60' E 010°15'4 4.1
2014-Aug-21 08:28N 55°04' E 010°14'2 0.8
2014-Aug-21 06:28N 55°06' E 010°14'0 0.0
2014-Aug-21 05:33N 55°06' E 010°14'0 0.0
2014-Aug-21 00:29N 55°06' E 010°14'0 0.0
2014-Aug-20 23:30N 55°06' E 010°14'0 0.0
2014-Aug-20 15:12N 55°06' E 010°14'0 0.0
2014-Aug-20 14:07N 55°06' E 010°14'1 1.6
2014-Aug-20 13:29N 55°05' E 010°14'6 6.1
2014-Aug-20 12:33N 54°59' E 010°10'5 5.5
2014-Aug-20 11:33N 54°54' E 010°07'6 6.3
2014-Aug-20 10:33N 54°49' E 010°01'5 5.4
2014-Aug-20 09:33N 54°50' E 009°52'5 4.7
2014-Aug-20 08:33N 54°54' E 009°47'0 0.4
2014-Aug-20 07:33N 54°54' E 009°47'0 0.0
2014-Aug-20 06:33N 54°54' E 009°47'0 0.0
2014-Aug-20 05:33N 54°54' E 009°47'0 0.0
2014-Aug-20 04:33N 54°54' E 009°47'0 0.0
2014-Aug-20 03:33N 54°54' E 009°47'0 0.0
2014-Aug-20 02:33N 54°54' E 009°47'0 0.0
2014-Aug-20 01:34N 54°54' E 009°47'0 0.0
2014-Aug-20 00:33N 54°54' E 009°47'0 0.0
2014-Aug-19 23:33N 54°54' E 009°47'0 0.0
2014-Aug-19 22:33N 54°54' E 009°47'0 0.0
2014-Aug-19 21:33N 54°54' E 009°47'0 0.0
2014-Aug-19 20:34N 54°54' E 009°47'0 0.0
2014-Aug-19 19:33N 54°54' E 009°47'0 0.0
2014-Aug-19 18:33N 54°54' E 009°47'0 0.0
2014-Aug-19 17:33N 54°54' E 009°47'0 0.0
2014-Aug-19 16:33N 54°54' E 009°47'0 0.0
2014-Aug-19 15:33N 54°54' E 009°47'0 0.0
2014-Aug-19 14:33N 54°54' E 009°47'0 0.0
2014-Aug-19 13:33N 54°54' E 009°47'2 1.6
2014-Aug-19 12:33N 54°53' E 009°48'4 4.2
2014-Aug-19 11:33N 54°50' E 009°52'2 1.7
2014-Aug-19 10:33N 54°49' E 009°55'6 6.3
2014-Aug-19 09:33N 54°44' E 010°01'4 3.7
2014-Aug-19 08:33N 54°41' E 010°01'1 0.1
2014-Aug-18 17:26N 54°41' E 009°59'3 3.7
2014-Aug-18 16:33N 54°39' E 010°04'  
Track history (hours):
 
Tides and Currents Weather Stations Pressure Air Temp Water Temp Dewpoint Dewpoint Depression Visibility Wind Speed Wind Dir Waves Ship Positions

Ide Min (Netherlands)

Ship's website: http://www.idemin.nl/english/english.html

Last reported at 2014-Aug-27 12:17 UTC. Time now 2014-Aug-27 15:13 UTC.
Position N 55°00' E 010°14'.

Length 40 m; draft 2.4 m.

MMSI: 244537000.

Date/timePositionNaut miles runAvg speedWind from/ knotsBaromVisibWave heightAir tempDewpointWater temp
2014-Aug-27 12:17N 55°00' E 010°14'1 1.9
2014-Aug-27 11:33N 54°59' E 010°15'3 0.5
2014-Aug-27 06:33N 54°57' E 010°16'0 0.0
2014-Aug-27 05:33N 54°57' E 010°16'0 0.0
2014-Aug-27 04:33N 54°57' E 010°16'0 0.0
2014-Aug-27 00:32N 54°57' E 010°16'0 0.0
2014-Aug-26 23:31N 54°57' E 010°16'3 0.3
2014-Aug-26 15:30N 54°56' E 010°20'  
2014-Aug-24 09:33N 54°37' E 010°04'4 3.6
2014-Aug-24 08:33N 54°40' E 010°02'  
2014-Aug-21 11:28N 54°55' E 010°13'5 5.2
2014-Aug-21 10:30N 55°00' E 010°11'3 2.7
2014-Aug-21 09:33N 54°60' E 010°15'4 4.1
2014-Aug-21 08:28N 55°04' E 010°14'2 0.8
2014-Aug-21 06:28N 55°06' E 010°14'0 0.0
2014-Aug-21 05:33N 55°06' E 010°14'0 0.0
2014-Aug-21 00:29N 55°06' E 010°14'0 0.0
2014-Aug-20 23:30N 55°06' E 010°14'0 0.0
2014-Aug-20 15:12N 55°06' E 010°14'0 0.0
2014-Aug-20 14:07N 55°06' E 010°14'1 1.6
2014-Aug-20 13:29N 55°05' E 010°14'6 6.1
2014-Aug-20 12:33N 54°59' E 010°10'5 5.5
2014-Aug-20 11:33N 54°54' E 010°07'6 6.3
2014-Aug-20 10:33N 54°49' E 010°01'5 5.4
2014-Aug-20 09:33N 54°50' E 009°52'5 4.7
2014-Aug-20 08:33N 54°54' E 009°47'0 0.4
2014-Aug-20 07:33N 54°54' E 009°47'0 0.0
2014-Aug-20 06:33N 54°54' E 009°47'0 0.0
2014-Aug-20 05:33N 54°54' E 009°47'0 0.0
2014-Aug-20 04:33N 54°54' E 009°47'0 0.0
2014-Aug-20 03:33N 54°54' E 009°47'0 0.0
2014-Aug-20 02:33N 54°54' E 009°47'0 0.0
2014-Aug-20 01:34N 54°54' E 009°47'0 0.0
2014-Aug-20 00:33N 54°54' E 009°47'0 0.0
2014-Aug-19 23:33N 54°54' E 009°47'0 0.0
2014-Aug-19 22:33N 54°54' E 009°47'0 0.0
2014-Aug-19 21:33N 54°54' E 009°47'0 0.0
2014-Aug-19 20:34N 54°54' E 009°47'0 0.0
2014-Aug-19 19:33N 54°54' E 009°47'0 0.0
2014-Aug-19 18:33N 54°54' E 009°47'0 0.0
2014-Aug-19 17:33N 54°54' E 009°47'0 0.0
2014-Aug-19 16:33N 54°54' E 009°47'0 0.0
2014-Aug-19 15:33N 54°54' E 009°47'0 0.0
2014-Aug-19 14:33N 54°54' E 009°47'0 0.0
2014-Aug-19 13:33N 54°54' E 009°47'2 1.6
2014-Aug-19 12:33N 54°53' E 009°48'4 4.2
2014-Aug-19 11:33N 54°50' E 009°52'2 1.7
2014-Aug-19 10:33N 54°49' E 009°55'6 6.3
2014-Aug-19 09:33N 54°44' E 010°01'4 3.7
2014-Aug-19 08:33N 54°41' E 010°01'1 0.1
2014-Aug-18 17:26N 54°41' E 009°59'3 3.7
2014-Aug-18 16:33N 54°39' E 010°04'  

Dump ship's entire track history